sensor_id;sensor_type;location;lat;lon;timestamp;P1;durP1;ratioP1;P2;durP2;ratioP2
46745;SDS011;32493;50.514;9.678;2023-04-15T00:02:41;5.78;;;3.13;;
46745;SDS011;32493;50.514;9.678;2023-04-15T00:04:50;10.75;;;3.80;;
46745;SDS011;32493;50.514;9.678;2023-04-15T00:06:55;7.72;;;4.03;;
46745;SDS011;32493;50.514;9.678;2023-04-15T00:09:06;8.80;;;3.97;;
46745;SDS011;32493;50.514;9.678;2023-04-15T00:11:19;10.23;;;4.75;;
46745;SDS011;32493;50.514;9.678;2023-04-15T00:13:26;9.43;;;4.25;;
46745;SDS011;32493;50.514;9.678;2023-04-15T00:15:31;8.45;;;4.18;;
46745;SDS011;32493;50.514;9.678;2023-04-15T00:17:38;7.82;;;4.53;;
46745;SDS011;32493;50.514;9.678;2023-04-15T00:19:43;9.90;;;4.82;;
46745;SDS011;32493;50.514;9.678;2023-04-15T00:21:50;14.00;;;5.00;;
46745;SDS011;32493;50.514;9.678;2023-04-15T00:23:59;8.20;;;4.50;;
46745;SDS011;32493;50.514;9.678;2023-04-15T00:26:16;8.05;;;3.95;;
46745;SDS011;32493;50.514;9.678;2023-04-15T00:28:25;10.60;;;4.28;;
46745;SDS011;32493;50.514;9.678;2023-04-15T00:30:31;12.73;;;4.50;;
46745;SDS011;32493;50.514;9.678;2023-04-15T00:32:42;8.20;;;4.47;;
46745;SDS011;32493;50.514;9.678;2023-04-15T00:34:54;8.40;;;4.38;;
46745;SDS011;32493;50.514;9.678;2023-04-15T00:37:02;10.48;;;5.18;;
46745;SDS011;32493;50.514;9.678;2023-04-15T00:39:07;9.00;;;4.85;;
46745;SDS011;32493;50.514;9.678;2023-04-15T00:43:30;8.82;;;4.30;;
46745;SDS011;32493;50.514;9.678;2023-04-15T00:45:36;8.57;;;3.70;;
46745;SDS011;32493;50.514;9.678;2023-04-15T00:47:43;8.13;;;4.13;;
46745;SDS011;32493;50.514;9.678;2023-04-15T00:49:49;7.35;;;4.18;;
46745;SDS011;32493;50.514;9.678;2023-04-15T00:51:56;11.05;;;4.57;;
46745;SDS011;32493;50.514;9.678;2023-04-15T00:54:04;7.93;;;4.50;;
46745;SDS011;32493;50.514;9.678;2023-04-15T00:56:11;7.95;;;5.07;;
46745;SDS011;32493;50.514;9.678;2023-04-15T00:58:27;7.85;;;4.95;;
46745;SDS011;32493;50.514;9.678;2023-04-15T01:02:41;7.70;;;3.97;;
46745;SDS011;32493;50.514;9.678;2023-04-15T01:04:52;6.82;;;3.95;;
46745;SDS011;32493;50.514;9.678;2023-04-15T01:06:58;9.25;;;4.25;;
46745;SDS011;32493;50.514;9.678;2023-04-15T01:09:03;8.57;;;4.22;;
46745;SDS011;32493;50.514;9.678;2023-04-15T01:11:14;8.60;;;4.05;;
46745;SDS011;32493;50.514;9.678;2023-04-15T01:13:20;8.00;;;4.47;;
46745;SDS011;32493;50.514;9.678;2023-04-15T01:15:29;9.50;;;4.80;;
46745;SDS011;32493;50.514;9.678;2023-04-15T01:17:36;8.60;;;4.55;;
46745;SDS011;32493;50.514;9.678;2023-04-15T01:19:42;7.55;;;4.13;;
46745;SDS011;32493;50.514;9.678;2023-04-15T01:21:47;9.43;;;4.20;;
46745;SDS011;32493;50.514;9.678;2023-04-15T01:24:08;12.60;;;4.40;;
46745;SDS011;32493;50.514;9.678;2023-04-15T01:26:19;6.75;;;4.53;;
46745;SDS011;32493;50.514;9.678;2023-04-15T01:28:27;8.52;;;4.63;;
46745;SDS011;32493;50.514;9.678;2023-04-15T01:30:33;10.27;;;4.55;;
46745;SDS011;32493;50.514;9.678;2023-04-15T01:32:40;8.15;;;4.95;;
46745;SDS011;32493;50.514;9.678;2023-04-15T01:34:46;9.50;;;4.60;;
46745;SDS011;32493;50.514;9.678;2023-04-15T01:36:57;8.27;;;4.72;;
46745;SDS011;32493;50.514;9.678;2023-04-15T01:39:02;11.75;;;5.40;;
46745;SDS011;32493;50.514;9.678;2023-04-15T01:41:11;8.90;;;4.57;;
46745;SDS011;32493;50.514;9.678;2023-04-15T01:43:23;10.13;;;4.80;;
46745;SDS011;32493;50.514;9.678;2023-04-15T01:45:29;7.63;;;4.43;;
46745;SDS011;32493;50.514;9.678;2023-04-15T01:47:37;7.57;;;4.70;;
46745;SDS011;32493;50.514;9.678;2023-04-15T01:49:43;9.10;;;4.63;;
46745;SDS011;32493;50.514;9.678;2023-04-15T01:51:48;9.27;;;4.78;;
46745;SDS011;32493;50.514;9.678;2023-04-15T01:53:56;8.50;;;4.25;;
46745;SDS011;32493;50.514;9.678;2023-04-15T01:56:05;9.05;;;4.40;;
46745;SDS011;32493;50.514;9.678;2023-04-15T01:58:11;9.65;;;5.25;;
46745;SDS011;32493;50.514;9.678;2023-04-15T02:00:20;6.68;;;4.25;;
46745;SDS011;32493;50.514;9.678;2023-04-15T02:02:29;6.70;;;4.13;;
46745;SDS011;32493;50.514;9.678;2023-04-15T02:04:37;9.73;;;5.03;;
46745;SDS011;32493;50.514;9.678;2023-04-15T02:06:43;9.57;;;5.70;;
46745;SDS011;32493;50.514;9.678;2023-04-15T02:08:48;8.85;;;5.03;;
46745;SDS011;32493;50.514;9.678;2023-04-15T02:10:53;11.30;;;5.78;;
46745;SDS011;32493;50.514;9.678;2023-04-15T02:12:59;11.95;;;5.82;;
46745;SDS011;32493;50.514;9.678;2023-04-15T02:15:06;14.30;;;5.97;;
46745;SDS011;32493;50.514;9.678;2023-04-15T02:17:16;12.23;;;5.57;;
46745;SDS011;32493;50.514;9.678;2023-04-15T02:19:21;12.43;;;5.35;;
46745;SDS011;32493;50.514;9.678;2023-04-15T02:21:32;10.10;;;5.35;;
46745;SDS011;32493;50.514;9.678;2023-04-15T02:23:40;9.48;;;5.00;;
46745;SDS011;32493;50.514;9.678;2023-04-15T02:25:47;10.00;;;4.45;;
46745;SDS011;32493;50.514;9.678;2023-04-15T02:27:57;9.65;;;4.75;;
46745;SDS011;32493;50.514;9.678;2023-04-15T02:30:04;9.63;;;4.78;;
46745;SDS011;32493;50.514;9.678;2023-04-15T02:32:14;9.32;;;5.20;;
46745;SDS011;32493;50.514;9.678;2023-04-15T02:34:28;10.30;;;5.85;;
46745;SDS011;32493;50.514;9.678;2023-04-15T02:36:34;8.57;;;4.78;;
46745;SDS011;32493;50.514;9.678;2023-04-15T02:38:41;9.20;;;5.20;;
46745;SDS011;32493;50.514;9.678;2023-04-15T02:40:48;10.27;;;5.32;;
46745;SDS011;32493;50.514;9.678;2023-04-15T02:42:53;11.77;;;4.55;;
46745;SDS011;32493;50.514;9.678;2023-04-15T02:45:12;12.20;;;4.70;;
46745;SDS011;32493;50.514;9.678;2023-04-15T02:47:24;8.73;;;4.60;;
46745;SDS011;32493;50.514;9.678;2023-04-15T02:49:30;10.38;;;4.78;;
46745;SDS011;32493;50.514;9.678;2023-04-15T02:51:39;7.70;;;4.72;;
46745;SDS011;32493;50.514;9.678;2023-04-15T02:53:44;9.52;;;4.68;;
46745;SDS011;32493;50.514;9.678;2023-04-15T02:55:51;10.18;;;5.07;;
46745;SDS011;32493;50.514;9.678;2023-04-15T02:58:01;11.68;;;5.65;;
46745;SDS011;32493;50.514;9.678;2023-04-15T03:00:09;8.32;;;5.43;;
46745;SDS011;32493;50.514;9.678;2023-04-15T03:02:19;11.23;;;5.05;;
46745;SDS011;32493;50.514;9.678;2023-04-15T03:04:28;11.85;;;5.00;;
46745;SDS011;32493;50.514;9.678;2023-04-15T03:06:33;10.05;;;4.88;;
46745;SDS011;32493;50.514;9.678;2023-04-15T03:08:42;10.27;;;4.88;;
46745;SDS011;32493;50.514;9.678;2023-04-15T03:10:47;11.32;;;5.60;;
46745;SDS011;32493;50.514;9.678;2023-04-15T03:12:56;9.95;;;4.78;;
46745;SDS011;32493;50.514;9.678;2023-04-15T03:15:06;8.68;;;4.30;;
46745;SDS011;32493;50.514;9.678;2023-04-15T03:17:19;10.88;;;4.65;;
46745;SDS011;32493;50.514;9.678;2023-04-15T03:19:28;6.88;;;4.70;;
46745;SDS011;32493;50.514;9.678;2023-04-15T03:21:42;9.27;;;4.63;;
46745;SDS011;32493;50.514;9.678;2023-04-15T03:23:50;8.82;;;5.07;;
46745;SDS011;32493;50.514;9.678;2023-04-15T03:25:55;13.10;;;5.05;;
46745;SDS011;32493;50.514;9.678;2023-04-15T03:28:03;11.63;;;4.80;;
46745;SDS011;32493;50.514;9.678;2023-04-15T03:30:09;6.57;;;4.55;;
46745;SDS011;32493;50.514;9.678;2023-04-15T03:32:17;8.20;;;4.55;;
46745;SDS011;32493;50.514;9.678;2023-04-15T03:34:31;10.70;;;4.60;;
46745;SDS011;32493;50.514;9.678;2023-04-15T03:36:36;11.40;;;4.97;;
46745;SDS011;32493;50.514;9.678;2023-04-15T03:38:41;7.40;;;4.65;;
46745;SDS011;32493;50.514;9.678;2023-04-15T03:40:48;11.60;;;5.10;;
46745;SDS011;32493;50.514;9.678;2023-04-15T03:43:01;13.45;;;4.90;;
46745;SDS011;32493;50.514;9.678;2023-04-15T03:45:06;10.35;;;4.88;;
46745;SDS011;32493;50.514;9.678;2023-04-15T03:47:13;8.50;;;4.18;;
46745;SDS011;32493;50.514;9.678;2023-04-15T03:49:20;7.43;;;4.45;;
46745;SDS011;32493;50.514;9.678;2023-04-15T03:51:29;10.00;;;4.53;;
46745;SDS011;32493;50.514;9.678;2023-04-15T03:53:39;9.50;;;4.50;;
46745;SDS011;32493;50.514;9.678;2023-04-15T03:55:46;8.60;;;4.70;;
46745;SDS011;32493;50.514;9.678;2023-04-15T03:57:52;10.27;;;4.88;;
46745;SDS011;32493;50.514;9.678;2023-04-15T03:59:57;12.40;;;4.50;;
46745;SDS011;32493;50.514;9.678;2023-04-15T04:02:14;9.15;;;4.70;;
46745;SDS011;32493;50.514;9.678;2023-04-15T04:04:22;7.95;;;4.70;;
46745;SDS011;32493;50.514;9.678;2023-04-15T04:06:30;11.15;;;5.40;;
46745;SDS011;32493;50.514;9.678;2023-04-15T04:08:35;9.63;;;4.60;;
46745;SDS011;32493;50.514;9.678;2023-04-15T04:10:43;10.20;;;4.90;;
46745;SDS011;32493;50.514;9.678;2023-04-15T04:12:53;11.10;;;4.60;;
46745;SDS011;32493;50.514;9.678;2023-04-15T04:15:00;8.07;;;4.47;;
46745;SDS011;32493;50.514;9.678;2023-04-15T04:17:07;8.13;;;4.45;;
46745;SDS011;32493;50.514;9.678;2023-04-15T04:19:12;9.23;;;5.10;;
46745;SDS011;32493;50.514;9.678;2023-04-15T04:21:24;8.60;;;4.80;;
46745;SDS011;32493;50.514;9.678;2023-04-15T04:23:32;11.45;;;5.18;;
46745;SDS011;32493;50.514;9.678;2023-04-15T04:25:37;9.65;;;5.03;;
46745;SDS011;32493;50.514;9.678;2023-04-15T04:27:42;7.95;;;4.75;;
46745;SDS011;32493;50.514;9.678;2023-04-15T04:29:48;10.65;;;5.57;;
46745;SDS011;32493;50.514;9.678;2023-04-15T04:31:53;9.18;;;4.70;;
46745;SDS011;32493;50.514;9.678;2023-04-15T04:34:01;11.25;;;5.18;;
46745;SDS011;32493;50.514;9.678;2023-04-15T04:36:09;10.07;;;4.90;;
46745;SDS011;32493;50.514;9.678;2023-04-15T04:38:15;9.70;;;5.32;;
46745;SDS011;32493;50.514;9.678;2023-04-15T04:40:25;16.75;;;6.20;;
46745;SDS011;32493;50.514;9.678;2023-04-15T04:42:32;16.65;;;6.28;;
46745;SDS011;32493;50.514;9.678;2023-04-15T04:44:45;16.02;;;5.50;;
46745;SDS011;32493;50.514;9.678;2023-04-15T04:46:50;18.30;;;5.47;;
46745;SDS011;32493;50.514;9.678;2023-04-15T04:48:55;14.55;;;5.80;;
46745;SDS011;32493;50.514;9.678;2023-04-15T04:51:04;16.15;;;6.22;;
46745;SDS011;32493;50.514;9.678;2023-04-15T04:53:12;12.32;;;5.18;;
46745;SDS011;32493;50.514;9.678;2023-04-15T04:55:20;10.35;;;5.47;;
46745;SDS011;32493;50.514;9.678;2023-04-15T04:57:29;13.13;;;5.88;;
46745;SDS011;32493;50.514;9.678;2023-04-15T04:59:36;16.08;;;5.38;;
46745;SDS011;32493;50.514;9.678;2023-04-15T05:01:42;15.52;;;5.40;;
46745;SDS011;32493;50.514;9.678;2023-04-15T05:03:51;14.95;;;4.97;;
46745;SDS011;32493;50.514;9.678;2023-04-15T05:05:58;12.52;;;5.13;;
46745;SDS011;32493;50.514;9.678;2023-04-15T05:10:11;15.98;;;5.03;;
46745;SDS011;32493;50.514;9.678;2023-04-15T05:12:19;9.45;;;5.13;;
46745;SDS011;32493;50.514;9.678;2023-04-15T05:14:30;11.50;;;4.97;;
46745;SDS011;32493;50.514;9.678;2023-04-15T05:16:35;11.18;;;4.88;;
46745;SDS011;32493;50.514;9.678;2023-04-15T05:18:40;14.70;;;5.65;;
46745;SDS011;32493;50.514;9.678;2023-04-15T05:20:45;11.68;;;5.10;;
46745;SDS011;32493;50.514;9.678;2023-04-15T05:22:51;10.93;;;5.35;;
46745;SDS011;32493;50.514;9.678;2023-04-15T05:24:57;12.35;;;5.85;;
46745;SDS011;32493;50.514;9.678;2023-04-15T05:27:02;13.32;;;5.28;;
46745;SDS011;32493;50.514;9.678;2023-04-15T05:29:09;15.90;;;5.32;;
46745;SDS011;32493;50.514;9.678;2023-04-15T05:31:19;15.77;;;5.88;;
46745;SDS011;32493;50.514;9.678;2023-04-15T05:33:26;15.25;;;5.72;;
46745;SDS011;32493;50.514;9.678;2023-04-15T05:35:31;14.38;;;5.30;;
46745;SDS011;32493;50.514;9.678;2023-04-15T05:37:37;11.70;;;5.45;;
46745;SDS011;32493;50.514;9.678;2023-04-15T05:39:42;17.58;;;6.15;;
46745;SDS011;32493;50.514;9.678;2023-04-15T05:41:49;12.77;;;5.45;;
46745;SDS011;32493;50.514;9.678;2023-04-15T05:44:00;9.88;;;4.95;;
46745;SDS011;32493;50.514;9.678;2023-04-15T05:46:05;13.15;;;5.55;;
46745;SDS011;32493;50.514;9.678;2023-04-15T05:48:14;10.60;;;5.03;;
46745;SDS011;32493;50.514;9.678;2023-04-15T05:50:20;8.65;;;5.55;;
46745;SDS011;32493;50.514;9.678;2023-04-15T05:54:36;11.57;;;5.57;;
46745;SDS011;32493;50.514;9.678;2023-04-15T05:56:43;17.10;;;5.73;;
46745;SDS011;32493;50.514;9.678;2023-04-15T05:58:50;10.75;;;5.72;;
46745;SDS011;32493;50.514;9.678;2023-04-15T06:00:56;9.95;;;5.40;;
46745;SDS011;32493;50.514;9.678;2023-04-15T06:05:12;11.57;;;5.55;;
46745;SDS011;32493;50.514;9.678;2023-04-15T06:09:26;11.32;;;6.05;;
46745;SDS011;32493;50.514;9.678;2023-04-15T06:11:34;11.25;;;5.10;;
46745;SDS011;32493;50.514;9.678;2023-04-15T06:13:42;11.70;;;4.97;;
46745;SDS011;32493;50.514;9.678;2023-04-15T06:15:48;10.65;;;5.43;;
46745;SDS011;32493;50.514;9.678;2023-04-15T06:17:53;10.35;;;5.03;;
46745;SDS011;32493;50.514;9.678;2023-04-15T06:19:58;14.48;;;5.28;;
46745;SDS011;32493;50.514;9.678;2023-04-15T06:22:16;8.52;;;4.70;;
46745;SDS011;32493;50.514;9.678;2023-04-15T06:24:23;9.63;;;5.20;;
46745;SDS011;32493;50.514;9.678;2023-04-15T06:26:28;12.50;;;4.93;;
46745;SDS011;32493;50.514;9.678;2023-04-15T06:28:33;9.15;;;5.18;;
46745;SDS011;32493;50.514;9.678;2023-04-15T06:30:38;8.48;;;4.70;;
46745;SDS011;32493;50.514;9.678;2023-04-15T06:32:47;7.43;;;4.88;;
46745;SDS011;32493;50.514;9.678;2023-04-15T06:34:56;10.63;;;4.95;;
46745;SDS011;32493;50.514;9.678;2023-04-15T06:37:01;9.75;;;5.05;;
46745;SDS011;32493;50.514;9.678;2023-04-15T06:39:09;11.82;;;5.95;;
46745;SDS011;32493;50.514;9.678;2023-04-15T06:43:23;9.98;;;4.93;;
46745;SDS011;32493;50.514;9.678;2023-04-15T06:45:28;10.82;;;5.65;;
46745;SDS011;32493;50.514;9.678;2023-04-15T06:47:36;10.02;;;5.55;;
46745;SDS011;32493;50.514;9.678;2023-04-15T06:49:42;9.65;;;5.95;;
46745;SDS011;32493;50.514;9.678;2023-04-15T06:51:48;13.00;;;5.97;;
46745;SDS011;32493;50.514;9.678;2023-04-15T06:54:07;12.88;;;6.53;;
46745;SDS011;32493;50.514;9.678;2023-04-15T06:56:18;11.80;;;6.70;;
46745;SDS011;32493;50.514;9.678;2023-04-15T06:58:23;16.50;;;6.75;;
46745;SDS011;32493;50.514;9.678;2023-04-15T07:00:28;15.25;;;6.70;;
46745;SDS011;32493;50.514;9.678;2023-04-15T07:02:38;13.60;;;6.40;;
46745;SDS011;32493;50.514;9.678;2023-04-15T07:04:47;12.00;;;7.05;;
46745;SDS011;32493;50.514;9.678;2023-04-15T07:06:52;10.77;;;7.18;;
46745;SDS011;32493;50.514;9.678;2023-04-15T07:09:00;13.80;;;7.30;;
46745;SDS011;32493;50.514;9.678;2023-04-15T07:11:20;14.10;;;7.38;;
46745;SDS011;32493;50.514;9.678;2023-04-15T07:13:29;14.55;;;7.55;;
46745;SDS011;32493;50.514;9.678;2023-04-15T07:15:35;13.35;;;7.50;;
46745;SDS011;32493;50.514;9.678;2023-04-15T07:17:41;17.63;;;8.07;;
46745;SDS011;32493;50.514;9.678;2023-04-15T07:19:46;14.57;;;8.60;;
46745;SDS011;32493;50.514;9.678;2023-04-15T07:21:54;13.48;;;8.35;;
46745;SDS011;32493;50.514;9.678;2023-04-15T07:24:00;13.98;;;9.35;;
46745;SDS011;32493;50.514;9.678;2023-04-15T07:26:07;13.32;;;8.05;;
46745;SDS011;32493;50.514;9.678;2023-04-15T07:28:14;16.83;;;8.07;;
46745;SDS011;32493;50.514;9.678;2023-04-15T07:30:20;13.90;;;8.27;;
46745;SDS011;32493;50.514;9.678;2023-04-15T07:32:28;12.57;;;8.13;;
46745;SDS011;32493;50.514;9.678;2023-04-15T07:34:40;15.02;;;9.82;;
46745;SDS011;32493;50.514;9.678;2023-04-15T07:36:46;15.88;;;10.32;;
46745;SDS011;32493;50.514;9.678;2023-04-15T07:38:52;14.00;;;9.98;;
46745;SDS011;32493;50.514;9.678;2023-04-15T07:40:58;17.17;;;10.18;;
46745;SDS011;32493;50.514;9.678;2023-04-15T07:43:14;17.17;;;9.98;;
46745;SDS011;32493;50.514;9.678;2023-04-15T07:45:22;19.65;;;10.45;;
46745;SDS011;32493;50.514;9.678;2023-04-15T07:47:28;15.00;;;10.27;;
46745;SDS011;32493;50.514;9.678;2023-04-15T07:49:36;15.55;;;9.82;;
46745;SDS011;32493;50.514;9.678;2023-04-15T07:51:43;17.90;;;10.32;;
46745;SDS011;32493;50.514;9.678;2023-04-15T07:55:55;16.85;;;9.90;;
46745;SDS011;32493;50.514;9.678;2023-04-15T07:58:14;15.43;;;10.25;;
46745;SDS011;32493;50.514;9.678;2023-04-15T08:00:19;16.67;;;10.55;;
46745;SDS011;32493;50.514;9.678;2023-04-15T08:02:29;16.35;;;10.63;;
46745;SDS011;32493;50.514;9.678;2023-04-15T08:04:44;17.13;;;11.02;;
46745;SDS011;32493;50.514;9.678;2023-04-15T08:06:51;19.50;;;10.98;;
46745;SDS011;32493;50.514;9.678;2023-04-15T08:08:56;16.20;;;10.70;;
46745;SDS011;32493;50.514;9.678;2023-04-15T08:11:04;17.77;;;12.05;;
46745;SDS011;32493;50.514;9.678;2023-04-15T08:13:19;18.27;;;11.32;;
46745;SDS011;32493;50.514;9.678;2023-04-15T08:15:25;15.95;;;10.93;;
46745;SDS011;32493;50.514;9.678;2023-04-15T08:17:37;18.20;;;11.10;;
46745;SDS011;32493;50.514;9.678;2023-04-15T08:19:49;15.88;;;10.63;;
46745;SDS011;32493;50.514;9.678;2023-04-15T08:21:58;18.55;;;11.82;;
46745;SDS011;32493;50.514;9.678;2023-04-15T08:24:03;18.35;;;11.82;;
46745;SDS011;32493;50.514;9.678;2023-04-15T08:26:12;18.85;;;12.35;;
46745;SDS011;32493;50.514;9.678;2023-04-15T08:28:22;17.90;;;12.50;;
46745;SDS011;32493;50.514;9.678;2023-04-15T08:30:31;19.20;;;12.50;;
46745;SDS011;32493;50.514;9.678;2023-04-15T08:32:42;15.77;;;11.43;;
46745;SDS011;32493;50.514;9.678;2023-04-15T08:34:49;19.33;;;12.13;;
46745;SDS011;32493;50.514;9.678;2023-04-15T08:36:57;17.77;;;12.10;;
46745;SDS011;32493;50.514;9.678;2023-04-15T08:39:05;22.33;;;13.25;;
46745;SDS011;32493;50.514;9.678;2023-04-15T08:41:16;19.92;;;12.65;;
46745;SDS011;32493;50.514;9.678;2023-04-15T08:43:32;17.98;;;12.63;;
46745;SDS011;32493;50.514;9.678;2023-04-15T08:45:47;19.85;;;12.50;;
46745;SDS011;32493;50.514;9.678;2023-04-15T08:47:54;22.43;;;13.33;;
46745;SDS011;32493;50.514;9.678;2023-04-15T08:50:03;21.42;;;12.98;;
46745;SDS011;32493;50.514;9.678;2023-04-15T08:52:14;18.25;;;12.57;;
46745;SDS011;32493;50.514;9.678;2023-04-15T08:54:40;18.05;;;12.52;;
46745;SDS011;32493;50.514;9.678;2023-04-15T08:56:46;19.02;;;12.80;;
46745;SDS011;32493;50.514;9.678;2023-04-15T09:01:02;19.05;;;11.88;;
46745;SDS011;32493;50.514;9.678;2023-04-15T09:03:11;20.85;;;13.32;;
46745;SDS011;32493;50.514;9.678;2023-04-15T09:05:18;20.95;;;13.57;;
46745;SDS011;32493;50.514;9.678;2023-04-15T09:07:24;18.90;;;12.25;;
46745;SDS011;32493;50.514;9.678;2023-04-15T09:09:40;19.65;;;13.13;;
46745;SDS011;32493;50.514;9.678;2023-04-15T09:11:49;20.33;;;11.27;;
46745;SDS011;32493;50.514;9.678;2023-04-15T09:14:00;20.92;;;12.32;;
46745;SDS011;32493;50.514;9.678;2023-04-15T09:16:09;20.85;;;13.07;;
46745;SDS011;32493;50.514;9.678;2023-04-15T09:18:27;17.65;;;11.50;;
46745;SDS011;32493;50.514;9.678;2023-04-15T09:20:37;14.07;;;10.02;;
46745;SDS011;32493;50.514;9.678;2023-04-15T09:22:50;15.05;;;9.10;;
46745;SDS011;32493;50.514;9.678;2023-04-15T09:25:02;12.05;;;8.98;;
46745;SDS011;32493;50.514;9.678;2023-04-15T09:27:35;13.23;;;9.10;;
46745;SDS011;32493;50.514;9.678;2023-04-15T09:29:43;13.98;;;8.88;;
46745;SDS011;32493;50.514;9.678;2023-04-15T09:31:54;12.25;;;8.45;;
46745;SDS011;32493;50.514;9.678;2023-04-15T09:33:59;15.48;;;9.43;;
46745;SDS011;32493;50.514;9.678;2023-04-15T09:36:05;13.30;;;9.00;;
46745;SDS011;32493;50.514;9.678;2023-04-15T09:38:11;12.75;;;8.32;;
46745;SDS011;32493;50.514;9.678;2023-04-15T09:40:29;11.85;;;7.82;;
46745;SDS011;32493;50.514;9.678;2023-04-15T09:42:52;14.18;;;8.68;;
46745;SDS011;32493;50.514;9.678;2023-04-15T09:45:09;17.20;;;9.52;;
46745;SDS011;32493;50.514;9.678;2023-04-15T09:47:30;14.75;;;9.02;;
46745;SDS011;32493;50.514;9.678;2023-04-15T09:49:36;14.02;;;8.27;;
46745;SDS011;32493;50.514;9.678;2023-04-15T09:51:41;13.50;;;8.82;;
46745;SDS011;32493;50.514;9.678;2023-04-15T09:54:05;10.77;;;6.38;;
46745;SDS011;32493;50.514;9.678;2023-04-15T09:56:10;13.77;;;8.27;;
46745;SDS011;32493;50.514;9.678;2023-04-15T09:58:22;12.98;;;7.63;;
46745;SDS011;32493;50.514;9.678;2023-04-15T10:00:32;15.80;;;9.38;;
46745;SDS011;32493;50.514;9.678;2023-04-15T10:02:44;13.02;;;8.70;;
46745;SDS011;32493;50.514;9.678;2023-04-15T10:04:54;16.70;;;9.07;;
46745;SDS011;32493;50.514;9.678;2023-04-15T10:07:02;14.52;;;9.20;;
46745;SDS011;32493;50.514;9.678;2023-04-15T10:09:08;14.23;;;8.90;;
46745;SDS011;32493;50.514;9.678;2023-04-15T10:11:16;13.52;;;8.95;;
46745;SDS011;32493;50.514;9.678;2023-04-15T10:13:25;13.38;;;8.07;;
46745;SDS011;32493;50.514;9.678;2023-04-15T10:15:55;15.43;;;8.80;;
46745;SDS011;32493;50.514;9.678;2023-04-15T10:18:02;12.73;;;7.95;;
46745;SDS011;32493;50.514;9.678;2023-04-15T10:20:14;13.48;;;7.60;;
46745;SDS011;32493;50.514;9.678;2023-04-15T10:22:23;11.00;;;7.13;;
46745;SDS011;32493;50.514;9.678;2023-04-15T10:24:38;10.40;;;6.75;;
46745;SDS011;32493;50.514;9.678;2023-04-15T10:26:46;11.80;;;6.88;;
46745;SDS011;32493;50.514;9.678;2023-04-15T10:28:54;13.98;;;7.70;;
46745;SDS011;32493;50.514;9.678;2023-04-15T10:31:03;9.65;;;6.18;;
46745;SDS011;32493;50.514;9.678;2023-04-15T10:33:10;10.90;;;6.55;;
46745;SDS011;32493;50.514;9.678;2023-04-15T10:35:16;11.32;;;6.82;;
46745;SDS011;32493;50.514;9.678;2023-04-15T10:37:35;11.98;;;7.28;;
46745;SDS011;32493;50.514;9.678;2023-04-15T10:41:49;9.98;;;6.30;;
46745;SDS011;32493;50.514;9.678;2023-04-15T10:44:10;10.35;;;6.22;;
46745;SDS011;32493;50.514;9.678;2023-04-15T10:46:21;10.77;;;6.65;;
46745;SDS011;32493;50.514;9.678;2023-04-15T10:48:30;11.75;;;6.72;;
46745;SDS011;32493;50.514;9.678;2023-04-15T10:50:36;11.07;;;7.13;;
46745;SDS011;32493;50.514;9.678;2023-04-15T10:52:42;10.32;;;6.30;;
46745;SDS011;32493;50.514;9.678;2023-04-15T10:54:52;10.18;;;6.35;;
46745;SDS011;32493;50.514;9.678;2023-04-15T10:57:08;11.15;;;7.30;;
46745;SDS011;32493;50.514;9.678;2023-04-15T10:59:20;10.55;;;6.50;;
46745;SDS011;32493;50.514;9.678;2023-04-15T11:04:07;9.40;;;6.07;;
46745;SDS011;32493;50.514;9.678;2023-04-15T11:08:52;9.95;;;6.30;;
46745;SDS011;32493;50.514;9.678;2023-04-15T11:11:11;10.35;;;6.13;;
46745;SDS011;32493;50.514;9.678;2023-04-15T11:13:17;11.45;;;6.95;;
46745;SDS011;32493;50.514;9.678;2023-04-15T11:15:34;11.32;;;6.50;;
46745;SDS011;32493;50.514;9.678;2023-04-15T11:17:44;10.88;;;7.05;;
46745;SDS011;32493;50.514;9.678;2023-04-15T11:19:50;11.48;;;6.85;;
46745;SDS011;32493;50.514;9.678;2023-04-15T11:22:05;11.43;;;6.78;;
46745;SDS011;32493;50.514;9.678;2023-04-15T11:24:17;10.95;;;6.45;;
46745;SDS011;32493;50.514;9.678;2023-04-15T11:26:30;8.55;;;5.85;;
46745;SDS011;32493;50.514;9.678;2023-04-15T11:28:36;9.48;;;6.40;;
46745;SDS011;32493;50.514;9.678;2023-04-15T11:30:45;10.77;;;6.25;;
46745;SDS011;32493;50.514;9.678;2023-04-15T11:32:54;9.93;;;6.18;;
46745;SDS011;32493;50.514;9.678;2023-04-15T11:35:02;9.40;;;6.22;;
46745;SDS011;32493;50.514;9.678;2023-04-15T11:37:08;9.02;;;6.20;;
46745;SDS011;32493;50.514;9.678;2023-04-15T11:39:16;9.10;;;6.00;;
46745;SDS011;32493;50.514;9.678;2023-04-15T11:41:36;9.45;;;6.25;;
46745;SDS011;32493;50.514;9.678;2023-04-15T11:44:01;10.15;;;6.55;;
46745;SDS011;32493;50.514;9.678;2023-04-15T11:46:06;9.32;;;5.65;;
46745;SDS011;32493;50.514;9.678;2023-04-15T11:48:14;11.05;;;6.40;;
46745;SDS011;32493;50.514;9.678;2023-04-15T11:50:21;9.65;;;5.97;;
46745;SDS011;32493;50.514;9.678;2023-04-15T11:52:32;10.75;;;6.57;;
46745;SDS011;32493;50.514;9.678;2023-04-15T11:54:40;10.35;;;5.82;;
46745;SDS011;32493;50.514;9.678;2023-04-15T11:56:51;9.90;;;6.07;;
46745;SDS011;32493;50.514;9.678;2023-04-15T11:59:00;10.07;;;6.50;;
46745;SDS011;32493;50.514;9.678;2023-04-15T12:01:05;10.45;;;6.60;;
46745;SDS011;32493;50.514;9.678;2023-04-15T12:03:16;10.73;;;6.40;;
46745;SDS011;32493;50.514;9.678;2023-04-15T12:05:28;12.40;;;6.75;;
46745;SDS011;32493;50.514;9.678;2023-04-15T12:10:02;10.45;;;5.60;;
46745;SDS011;32493;50.514;9.678;2023-04-15T12:12:13;10.50;;;6.43;;
46745;SDS011;32493;50.514;9.678;2023-04-15T12:14:24;11.40;;;6.00;;
46745;SDS011;32493;50.514;9.678;2023-04-15T12:16:32;9.40;;;5.93;;
46745;SDS011;32493;50.514;9.678;2023-04-15T12:18:54;11.68;;;6.38;;
46745;SDS011;32493;50.514;9.678;2023-04-15T12:21:03;11.88;;;6.13;;
46745;SDS011;32493;50.514;9.678;2023-04-15T12:23:13;9.52;;;5.10;;
46745;SDS011;32493;50.514;9.678;2023-04-15T12:25:31;9.40;;;5.50;;
46745;SDS011;32493;50.514;9.678;2023-04-15T12:27:49;7.85;;;4.88;;
46745;SDS011;32493;50.514;9.678;2023-04-15T12:30:02;9.63;;;5.43;;
46745;SDS011;32493;50.514;9.678;2023-04-15T12:32:09;8.88;;;4.45;;
46745;SDS011;32493;50.514;9.678;2023-04-15T12:34:24;7.53;;;4.45;;
46745;SDS011;32493;50.514;9.678;2023-04-15T12:36:32;7.80;;;4.25;;
46745;SDS011;32493;50.514;9.678;2023-04-15T12:40:45;6.80;;;4.22;;
46745;SDS011;32493;50.514;9.678;2023-04-15T12:42:51;5.72;;;3.67;;
46745;SDS011;32493;50.514;9.678;2023-04-15T12:45:00;6.15;;;3.75;;
46745;SDS011;32493;50.514;9.678;2023-04-15T12:47:30;4.63;;;2.97;;
46745;SDS011;32493;50.514;9.678;2023-04-15T12:49:38;6.00;;;3.55;;
46745;SDS011;32493;50.514;9.678;2023-04-15T12:51:47;3.90;;;3.13;;
46745;SDS011;32493;50.514;9.678;2023-04-15T12:53:59;4.40;;;2.40;;
46745;SDS011;32493;50.514;9.678;2023-04-15T12:56:08;3.53;;;2.03;;
46745;SDS011;32493;50.514;9.678;2023-04-15T12:58:16;3.20;;;2.35;;
46745;SDS011;32493;50.514;9.678;2023-04-15T13:00:23;4.23;;;2.70;;
46745;SDS011;32493;50.514;9.678;2023-04-15T13:02:37;4.00;;;2.40;;
46745;SDS011;32493;50.514;9.678;2023-04-15T13:04:51;4.30;;;2.90;;
46745;SDS011;32493;50.514;9.678;2023-04-15T13:06:58;4.28;;;2.67;;
46745;SDS011;32493;50.514;9.678;2023-04-15T13:09:06;5.32;;;2.50;;
46745;SDS011;32493;50.514;9.678;2023-04-15T13:11:17;3.63;;;2.35;;
46745;SDS011;32493;50.514;9.678;2023-04-15T13:13:53;3.30;;;2.42;;
46745;SDS011;32493;50.514;9.678;2023-04-15T13:15:59;3.80;;;2.67;;
46745;SDS011;32493;50.514;9.678;2023-04-15T13:18:05;3.75;;;2.33;;
46745;SDS011;32493;50.514;9.678;2023-04-15T13:20:14;3.80;;;2.70;;
46745;SDS011;32493;50.514;9.678;2023-04-15T13:24:34;2.47;;;2.03;;